Terminal Aerodrome Forecast
Issued by NWS Omaha/Valley, NE

Home | Current Version | Previous Version | Text Only | Print | Product List | Glossary On
Versions: 1 2 3 4 5 6 7 8 9 10 11 12 13 14 15 16 17 18 19 20 21 22 23 24 25 26 27 28 29 30 31 32 33 34 35 36 37 38 39 40 41 42 43 44
000
FTUS43 KOAX 021723
TAFOFK
TAF
KOFK 021723Z 0218/0318 33011KT P6SM SCT015 BKN050
      TEMPO 0218/0220 33011G20KT P6SM BKN012
     FM030000 VRB04KT P6SM SCT150
     FM030600 32018G28KT P6SM BKN020 PROB30 0307/0309 5SM -SHRA
      BKN015
     FM031400 32024G32KT P6SM SCT040=

USA.gov is the U.S. government's official web portal to all federal, state and local government web resources and services.